sensor_id;sensor_type;location;lat;lon;timestamp;pressure;altitude;pressure_sealevel;temperature;humidity
64602;BME280;68371;42.630;23.192;2023-04-27T00:00:14;92038.06;;;6.70;62.65
64602;BME280;68371;42.630;23.192;2023-04-27T00:02:40;92032.22;;;6.73;63.29
64602;BME280;68371;42.630;23.192;2023-04-27T00:05:08;92033.59;;;6.92;63.29
64602;BME280;68371;42.630;23.192;2023-04-27T00:07:37;91866.66;;;5.87;62.29
64602;BME280;68371;42.630;23.192;2023-04-27T00:10:05;92036.91;;;6.80;61.26
64602;BME280;68371;42.630;23.192;2023-04-27T00:12:32;92039.41;;;6.76;62.01
64602;BME280;68371;42.630;23.192;2023-04-27T00:14:59;92032.53;;;6.72;63.29
64602;BME280;68371;42.630;23.192;2023-04-27T00:17:25;92034.88;;;6.65;62.49
64602;BME280;68371;42.630;23.192;2023-04-27T00:19:53;92032.16;;;6.61;62.26
64602;BME280;68371;42.630;23.192;2023-04-27T00:22:21;92040.00;;;6.61;61.50
64602;BME280;68371;42.630;23.192;2023-04-27T00:24:47;92037.13;;;6.54;63.40
64602;BME280;68371;42.630;23.192;2023-04-27T00:27:14;92040.78;;;6.53;63.25
64602;BME280;68371;42.630;23.192;2023-04-27T00:29:41;92028.72;;;6.48;63.59
64602;BME280;68371;42.630;23.192;2023-04-27T00:32:08;92026.03;;;6.36;63.49
64602;BME280;68371;42.630;23.192;2023-04-27T00:34:35;92030.72;;;6.42;62.57
64602;BME280;68371;42.630;23.192;2023-04-27T00:37:02;92032.66;;;6.33;61.78
64602;BME280;68371;42.630;23.192;2023-04-27T00:39:33;92028.06;;;6.30;62.44
64602;BME280;68371;42.630;23.192;2023-04-27T00:41:59;92029.25;;;6.12;61.62
64602;BME280;68371;42.630;23.192;2023-04-27T00:44:27;92035.03;;;6.17;61.45
64602;BME280;68371;42.630;23.192;2023-04-27T00:46:54;92035.03;;;6.17;61.38
64602;BME280;68371;42.630;23.192;2023-04-27T00:49:22;92030.03;;;6.33;62.04
64602;BME280;68371;42.630;23.192;2023-04-27T00:51:51;92044.88;;;6.20;61.63
64602;BME280;68371;42.630;23.192;2023-04-27T00:54:19;92042.34;;;6.03;62.38
64602;BME280;68371;42.630;23.192;2023-04-27T00:56:48;92034.50;;;6.03;61.74
64602;BME280;68371;42.630;23.192;2023-04-27T00:59:15;92034.81;;;6.01;61.57
64602;BME280;68371;42.630;23.192;2023-04-27T01:01:41;92033.84;;;6.15;61.12
64602;BME280;68371;42.630;23.192;2023-04-27T01:04:09;92043.59;;;6.27;60.48
64602;BME280;68371;42.630;23.192;2023-04-27T01:06:36;92035.34;;;6.16;59.66
64602;BME280;68371;42.630;23.192;2023-04-27T01:09:03;92039.91;;;5.89;61.41
64602;BME280;68371;42.630;23.192;2023-04-27T01:11:31;92051.88;;;5.99;61.28
64602;BME280;68371;42.630;23.192;2023-04-27T01:14:02;92058.53;;;6.17;61.01
64602;BME280;68371;42.630;23.192;2023-04-27T01:16:29;92054.03;;;5.88;60.74
64602;BME280;68371;42.630;23.192;2023-04-27T01:18:57;92058.69;;;5.74;61.16
64602;BME280;68371;42.630;23.192;2023-04-27T01:21:24;92058.25;;;5.72;61.68
64602;BME280;68371;42.630;23.192;2023-04-27T01:23:52;92051.78;;;5.78;61.05
64602;BME280;68371;42.630;23.192;2023-04-27T01:26:19;92053.16;;;5.75;62.93
64602;BME280;68371;42.630;23.192;2023-04-27T01:28:47;92060.50;;;5.82;61.80
64602;BME280;68371;42.630;23.192;2023-04-27T01:31:13;92059.66;;;5.60;61.68
64602;BME280;68371;42.630;23.192;2023-04-27T01:33:40;92054.59;;;5.64;62.10
64602;BME280;68371;42.630;23.192;2023-04-27T01:36:08;92039.72;;;5.65;61.90
64602;BME280;68371;42.630;23.192;2023-04-27T01:38:35;92052.84;;;5.77;61.86
64602;BME280;68371;42.630;23.192;2023-04-27T01:41:04;92048.59;;;5.63;63.14
64602;BME280;68371;42.630;23.192;2023-04-27T01:43:33;92061.16;;;5.70;62.13
64602;BME280;68371;42.630;23.192;2023-04-27T01:46:05;92051.81;;;5.69;61.99
64602;BME280;68371;42.630;23.192;2023-04-27T01:48:33;92056.88;;;5.66;62.03
64602;BME280;68371;42.630;23.192;2023-04-27T01:51:00;92059.81;;;5.64;61.54
64602;BME280;68371;42.630;23.192;2023-04-27T01:53:27;92050.75;;;5.61;62.74
64602;BME280;68371;42.630;23.192;2023-04-27T01:55:53;92062.38;;;5.73;62.63
64602;BME280;68371;42.630;23.192;2023-04-27T01:58:21;92062.06;;;5.66;61.12
64602;BME280;68371;42.630;23.192;2023-04-27T02:00:48;92060.44;;;5.52;62.16
64602;BME280;68371;42.630;23.192;2023-04-27T02:03:15;92054.94;;;5.54;61.70
64602;BME280;68371;42.630;23.192;2023-04-27T02:05:41;92057.81;;;5.61;61.92
64602;BME280;68371;42.630;23.192;2023-04-27T02:08:08;92066.25;;;5.58;63.04
64602;BME280;68371;42.630;23.192;2023-04-27T02:10:35;92053.69;;;5.60;60.87
64602;BME280;68371;42.630;23.192;2023-04-27T02:13:02;92047.84;;;5.63;61.90
64602;BME280;68371;42.630;23.192;2023-04-27T02:15:31;92052.31;;;5.54;62.09
64602;BME280;68371;42.630;23.192;2023-04-27T02:17:57;92051.97;;;5.64;62.62
64602;BME280;68371;42.630;23.192;2023-04-27T02:20:24;92054.25;;;5.66;62.11
64602;BME280;68371;42.630;23.192;2023-04-27T02:22:51;92063.81;;;5.53;61.15
64602;BME280;68371;42.630;23.192;2023-04-27T02:25:18;92054.03;;;5.50;63.67
64602;BME280;68371;42.630;23.192;2023-04-27T02:27:45;92064.44;;;5.50;60.53
64602;BME280;68371;42.630;23.192;2023-04-27T02:30:12;92051.38;;;5.58;62.43
64602;BME280;68371;42.630;23.192;2023-04-27T02:32:40;92058.72;;;5.65;62.96
64602;BME280;68371;42.630;23.192;2023-04-27T02:35:08;92061.78;;;5.67;62.43
64602;BME280;68371;42.630;23.192;2023-04-27T02:37:35;92073.88;;;5.72;63.72
64602;BME280;68371;42.630;23.192;2023-04-27T02:40:02;92067.13;;;5.71;62.14
64602;BME280;68371;42.630;23.192;2023-04-27T02:42:31;92070.50;;;5.71;60.68
64602;BME280;68371;42.630;23.192;2023-04-27T02:44:58;91993.41;;;5.32;62.64
64602;BME280;68371;42.630;23.192;2023-04-27T02:47:25;92066.03;;;5.80;61.68
64602;BME280;68371;42.630;23.192;2023-04-27T02:49:53;92063.91;;;5.74;59.73
64602;BME280;68371;42.630;23.192;2023-04-27T02:52:20;92066.63;;;5.86;62.92
64602;BME280;68371;42.630;23.192;2023-04-27T02:54:47;92076.91;;;5.82;62.14
64602;BME280;68371;42.630;23.192;2023-04-27T02:57:13;92072.03;;;5.72;61.16
64602;BME280;68371;42.630;23.192;2023-04-27T02:59:40;92075.00;;;5.62;61.56
64602;BME280;68371;42.630;23.192;2023-04-27T03:02:07;92066.84;;;5.63;61.22
64602;BME280;68371;42.630;23.192;2023-04-27T03:04:34;92068.34;;;5.73;60.58
64602;BME280;68371;42.630;23.192;2023-04-27T03:07:02;92080.66;;;5.55;59.76
64602;BME280;68371;42.630;23.192;2023-04-27T03:09:29;92088.03;;;5.62;61.00
64602;BME280;68371;42.630;23.192;2023-04-27T03:11:55;92082.47;;;5.63;61.01
64602;BME280;68371;42.630;23.192;2023-04-27T03:14:22;92089.19;;;5.73;60.31
64602;BME280;68371;42.630;23.192;2023-04-27T03:16:49;92084.47;;;5.67;62.08
64602;BME280;68371;42.630;23.192;2023-04-27T03:19:16;92100.78;;;5.46;61.07
64602;BME280;68371;42.630;23.192;2023-04-27T03:21:42;92094.47;;;5.47;60.27
64602;BME280;68371;42.630;23.192;2023-04-27T03:24:10;92106.25;;;5.53;61.25
64602;BME280;68371;42.630;23.192;2023-04-27T03:26:38;92106.13;;;5.41;61.45
64602;BME280;68371;42.630;23.192;2023-04-27T03:29:05;92108.13;;;5.44;61.49
64602;BME280;68371;42.630;23.192;2023-04-27T03:31:31;92104.00;;;5.34;60.29
64602;BME280;68371;42.630;23.192;2023-04-27T03:33:58;92100.91;;;5.41;63.11
64602;BME280;68371;42.630;23.192;2023-04-27T03:36:25;92101.38;;;5.43;62.03
64602;BME280;68371;42.630;23.192;2023-04-27T03:38:52;92113.81;;;5.46;61.02
64602;BME280;68371;42.630;23.192;2023-04-27T03:41:20;92115.78;;;5.40;61.27
64602;BME280;68371;42.630;23.192;2023-04-27T03:43:47;92113.38;;;5.35;60.36
64602;BME280;68371;42.630;23.192;2023-04-27T03:46:15;92112.00;;;5.29;61.12
64602;BME280;68371;42.630;23.192;2023-04-27T03:48:41;92106.91;;;5.33;62.20
64602;BME280;68371;42.630;23.192;2023-04-27T03:51:08;92120.56;;;5.38;60.98
64602;BME280;68371;42.630;23.192;2023-04-27T03:53:36;92119.81;;;5.29;61.73
64602;BME280;68371;42.630;23.192;2023-04-27T03:56:03;92123.28;;;5.51;64.68
64602;BME280;68371;42.630;23.192;2023-04-27T03:58:31;92122.56;;;5.41;60.37
64602;BME280;68371;42.630;23.192;2023-04-27T04:00:57;92126.38;;;5.35;60.45
64602;BME280;68371;42.630;23.192;2023-04-27T04:03:24;92131.28;;;5.46;60.12
64602;BME280;68371;42.630;23.192;2023-04-27T04:05:51;92131.88;;;5.42;61.64
64602;BME280;68371;42.630;23.192;2023-04-27T04:08:17;92137.25;;;5.37;60.98
64602;BME280;68371;42.630;23.192;2023-04-27T04:10:44;92128.97;;;5.27;59.25
64602;BME280;68371;42.630;23.192;2023-04-27T04:13:11;92139.25;;;5.40;61.56
64602;BME280;68371;42.630;23.192;2023-04-27T04:15:39;92150.91;;;5.34;61.73
64602;BME280;68371;42.630;23.192;2023-04-27T04:18:06;92148.59;;;5.41;60.17
64602;BME280;68371;42.630;23.192;2023-04-27T04:20:33;92151.78;;;5.47;61.59
64602;BME280;68371;42.630;23.192;2023-04-27T04:23:00;92154.41;;;5.47;61.92
64602;BME280;68371;42.630;23.192;2023-04-27T04:25:27;92153.81;;;5.33;62.35
64602;BME280;68371;42.630;23.192;2023-04-27T04:27:53;92159.00;;;5.33;60.90
64602;BME280;68371;42.630;23.192;2023-04-27T04:30:20;92163.16;;;5.25;60.40
64602;BME280;68371;42.630;23.192;2023-04-27T04:32:48;92167.59;;;5.33;58.53
64602;BME280;68371;42.630;23.192;2023-04-27T04:35:15;92153.34;;;5.39;60.69
64602;BME280;68371;42.630;23.192;2023-04-27T04:37:44;92155.31;;;5.42;60.76
64602;BME280;68371;42.630;23.192;2023-04-27T04:40:12;92175.25;;;5.47;59.96
64602;BME280;68371;42.630;23.192;2023-04-27T04:42:39;92168.50;;;5.46;60.28
64602;BME280;68371;42.630;23.192;2023-04-27T04:45:06;92170.97;;;5.42;60.83
64602;BME280;68371;42.630;23.192;2023-04-27T04:47:33;92173.53;;;5.51;60.55
64602;BME280;68371;42.630;23.192;2023-04-27T04:50:02;92180.75;;;5.54;60.51
64602;BME280;68371;42.630;23.192;2023-04-27T04:52:29;92182.75;;;5.66;61.11
64602;BME280;68371;42.630;23.192;2023-04-27T04:54:56;92182.13;;;5.69;59.72
64602;BME280;68371;42.630;23.192;2023-04-27T04:57:23;92188.13;;;5.70;60.15
64602;BME280;68371;42.630;23.192;2023-04-27T04:59:49;92193.91;;;5.75;59.08
64602;BME280;68371;42.630;23.192;2023-04-27T05:02:16;92187.03;;;5.71;58.97
64602;BME280;68371;42.630;23.192;2023-04-27T05:04:43;92120.72;;;5.33;58.48
64602;BME280;68371;42.630;23.192;2023-04-27T05:07:11;92191.31;;;5.75;58.15
64602;BME280;68371;42.630;23.192;2023-04-27T05:09:38;92192.84;;;5.68;58.03
64602;BME280;68371;42.630;23.192;2023-04-27T05:12:05;92196.06;;;5.73;57.76
64602;BME280;68371;42.630;23.192;2023-04-27T05:14:32;92190.09;;;5.73;58.00
64602;BME280;68371;42.630;23.192;2023-04-27T05:16:59;92198.53;;;5.70;58.37
64602;BME280;68371;42.630;23.192;2023-04-27T05:19:27;92206.66;;;5.59;58.84
64602;BME280;68371;42.630;23.192;2023-04-27T05:21:55;92204.81;;;5.69;59.70
64602;BME280;68371;42.630;23.192;2023-04-27T05:24:23;92206.31;;;5.87;58.57
64602;BME280;68371;42.630;23.192;2023-04-27T05:26:50;92206.63;;;5.77;57.86
64602;BME280;68371;42.630;23.192;2023-04-27T05:29:17;92190.09;;;5.55;57.42
64602;BME280;68371;42.630;23.192;2023-04-27T05:31:44;92208.03;;;5.74;60.18
64602;BME280;68371;42.630;23.192;2023-04-27T05:34:10;92206.63;;;5.86;58.84
64602;BME280;68371;42.630;23.192;2023-04-27T05:36:37;92212.13;;;5.93;58.30
64602;BME280;68371;42.630;23.192;2023-04-27T05:39:04;92208.78;;;6.01;59.08
64602;BME280;68371;42.630;23.192;2023-04-27T05:41:32;92208.28;;;6.08;59.08
64602;BME280;68371;42.630;23.192;2023-04-27T05:43:59;92216.56;;;6.18;60.50
64602;BME280;68371;42.630;23.192;2023-04-27T05:46:26;92224.19;;;6.24;59.99
64602;BME280;68371;42.630;23.192;2023-04-27T05:48:52;92222.69;;;6.22;57.39
64602;BME280;68371;42.630;23.192;2023-04-27T05:51:19;92201.38;;;6.12;56.94
64602;BME280;68371;42.630;23.192;2023-04-27T05:53:46;92218.38;;;6.18;56.47
64602;BME280;68371;42.630;23.192;2023-04-27T05:56:12;92209.38;;;6.07;59.02
64602;BME280;68371;42.630;23.192;2023-04-27T05:58:42;92137.81;;;5.78;59.51
64602;BME280;68371;42.630;23.192;2023-04-27T06:01:08;92225.69;;;6.42;56.62
64602;BME280;68371;42.630;23.192;2023-04-27T06:03:35;92196.72;;;6.35;56.66
64602;BME280;68371;42.630;23.192;2023-04-27T06:06:02;92220.50;;;6.72;59.06
64602;BME280;68371;42.630;23.192;2023-04-27T06:08:28;92224.25;;;6.92;58.80
64602;BME280;68371;42.630;23.192;2023-04-27T06:10:56;92221.44;;;6.97;59.50
64602;BME280;68371;42.630;23.192;2023-04-27T06:13:22;92224.63;;;7.02;57.57
64602;BME280;68371;42.630;23.192;2023-04-27T06:15:50;92226.13;;;7.12;58.17
64602;BME280;68371;42.630;23.192;2023-04-27T06:18:17;92222.16;;;7.27;55.03
64602;BME280;68371;42.630;23.192;2023-04-27T06:20:44;92214.91;;;7.33;55.33
64602;BME280;68371;42.630;23.192;2023-04-27T06:23:11;92212.16;;;7.29;54.27
64602;BME280;68371;42.630;23.192;2023-04-27T06:25:38;92222.22;;;7.39;55.76
64602;BME280;68371;42.630;23.192;2023-04-27T06:28:05;92217.28;;;7.47;55.41
64602;BME280;68371;42.630;23.192;2023-04-27T06:30:32;92218.41;;;7.58;55.14
64602;BME280;68371;42.630;23.192;2023-04-27T06:33:00;92216.00;;;7.53;53.98
64602;BME280;68371;42.630;23.192;2023-04-27T06:35:27;92214.97;;;7.45;53.28
64602;BME280;68371;42.630;23.192;2023-04-27T06:37:53;92216.34;;;7.63;54.03
64602;BME280;68371;42.630;23.192;2023-04-27T06:40:23;92212.66;;;7.65;53.87
64602;BME280;68371;42.630;23.192;2023-04-27T06:42:50;92213.13;;;7.67;54.64
64602;BME280;68371;42.630;23.192;2023-04-27T06:45:17;92208.19;;;7.65;52.89
64602;BME280;68371;42.630;23.192;2023-04-27T06:47:44;92210.75;;;7.53;53.56
64602;BME280;68371;42.630;23.192;2023-04-27T06:50:13;92196.53;;;7.62;53.50
64602;BME280;68371;42.630;23.192;2023-04-27T06:52:40;92209.72;;;7.66;54.54
64602;BME280;68371;42.630;23.192;2023-04-27T06:55:07;92207.09;;;7.66;53.61
64602;BME280;68371;42.630;23.192;2023-04-27T06:57:34;92203.66;;;7.74;53.83
64602;BME280;68371;42.630;23.192;2023-04-27T07:00:01;92207.81;;;7.75;53.12
64602;BME280;68371;42.630;23.192;2023-04-27T07:02:29;92197.31;;;7.63;53.79
64602;BME280;68371;42.630;23.192;2023-04-27T07:04:56;92202.22;;;7.65;53.42
64602;BME280;68371;42.630;23.192;2023-04-27T07:07:24;92202.75;;;7.70;55.62
64602;BME280;68371;42.630;23.192;2023-04-27T07:09:50;92188.50;;;7.68;55.77
64602;BME280;68371;42.630;23.192;2023-04-27T07:12:17;92198.63;;;7.69;54.21
64602;BME280;68371;42.630;23.192;2023-04-27T07:14:44;92197.34;;;7.75;53.92
64602;BME280;68371;42.630;23.192;2023-04-27T07:17:11;92198.09;;;7.76;52.59
64602;BME280;68371;42.630;23.192;2023-04-27T07:19:37;92193.97;;;7.75;54.14
64602;BME280;68371;42.630;23.192;2023-04-27T07:22:04;92202.34;;;7.80;56.20
64602;BME280;68371;42.630;23.192;2023-04-27T07:24:32;92193.13;;;7.83;55.39
64602;BME280;68371;42.630;23.192;2023-04-27T07:26:58;92202.03;;;7.82;56.49
64602;BME280;68371;42.630;23.192;2023-04-27T07:29:27;92201.28;;;7.81;54.81
64602;BME280;68371;42.630;23.192;2023-04-27T07:31:54;92206.78;;;7.89;54.16
64602;BME280;68371;42.630;23.192;2023-04-27T07:34:21;92199.75;;;7.80;51.57
64602;BME280;68371;42.630;23.192;2023-04-27T07:36:48;92198.94;;;7.89;53.72
64602;BME280;68371;42.630;23.192;2023-04-27T07:39:16;92199.03;;;7.92;52.98
64602;BME280;68371;42.630;23.192;2023-04-27T07:41:45;92199.88;;;7.84;52.35
64602;BME280;68371;42.630;23.192;2023-04-27T07:44:12;92200.41;;;7.77;52.82
64602;BME280;68371;42.630;23.192;2023-04-27T07:46:39;92208.25;;;7.77;51.78
64602;BME280;68371;42.630;23.192;2023-04-27T07:49:06;92196.06;;;7.81;52.70
64602;BME280;68371;42.630;23.192;2023-04-27T07:51:32;92196.06;;;7.81;52.53
64602;BME280;68371;42.630;23.192;2023-04-27T07:53:59;92188.84;;;7.78;51.75
64602;BME280;68371;42.630;23.192;2023-04-27T07:56:26;92205.66;;;7.90;52.69
64602;BME280;68371;42.630;23.192;2023-04-27T07:58:55;92192.31;;;8.03;53.23
64602;BME280;68371;42.630;23.192;2023-04-27T08:01:21;92179.91;;;7.79;52.33
64602;BME280;68371;42.630;23.192;2023-04-27T08:03:48;92202.97;;;7.98;52.71
64602;BME280;68371;42.630;23.192;2023-04-27T08:06:15;92208.44;;;8.06;54.20
64602;BME280;68371;42.630;23.192;2023-04-27T08:08:42;92205.41;;;8.16;52.08
64602;BME280;68371;42.630;23.192;2023-04-27T08:11:08;92208.00;;;8.03;48.77
64602;BME280;68371;42.630;23.192;2023-04-27T08:13:35;92200.84;;;7.79;49.19
64602;BME280;68371;42.630;23.192;2023-04-27T08:16:04;92192.69;;;7.81;49.94
64602;BME280;68371;42.630;23.192;2023-04-27T08:18:31;92201.56;;;8.01;50.85
64602;BME280;68371;42.630;23.192;2023-04-27T08:20:58;92203.34;;;8.09;49.93
64602;BME280;68371;42.630;23.192;2023-04-27T08:23:25;92175.00;;;8.11;51.29
64602;BME280;68371;42.630;23.192;2023-04-27T08:25:53;92201.97;;;8.36;49.16
64602;BME280;68371;42.630;23.192;2023-04-27T08:28:19;92206.63;;;8.31;50.10
64602;BME280;68371;42.630;23.192;2023-04-27T08:30:48;92200.94;;;8.50;49.57
64602;BME280;68371;42.630;23.192;2023-04-27T08:33:16;92204.06;;;8.55;49.76
64602;BME280;68371;42.630;23.192;2023-04-27T08:35:42;92203.63;;;8.66;48.68
64602;BME280;68371;42.630;23.192;2023-04-27T08:38:09;92204.53;;;8.82;49.97
64602;BME280;68371;42.630;23.192;2023-04-27T08:40:41;92203.31;;;8.92;49.04
64602;BME280;68371;42.630;23.192;2023-04-27T08:43:08;92177.66;;;8.97;49.89
64602;BME280;68371;42.630;23.192;2023-04-27T08:45:35;92208.19;;;9.18;48.95
64602;BME280;68371;42.630;23.192;2023-04-27T08:48:01;92209.16;;;9.26;47.46
64602;BME280;68371;42.630;23.192;2023-04-27T08:50:29;92211.13;;;9.41;46.92
64602;BME280;68371;42.630;23.192;2023-04-27T08:52:56;92203.69;;;9.43;47.00
64602;BME280;68371;42.630;23.192;2023-04-27T08:55:24;92212.81;;;9.61;48.27
64602;BME280;68371;42.630;23.192;2023-04-27T08:57:55;92159.91;;;9.31;47.70
64602;BME280;68371;42.630;23.192;2023-04-27T09:00:24;92211.00;;;9.78;48.58
64602;BME280;68371;42.630;23.192;2023-04-27T09:02:51;92205.94;;;9.85;45.84
64602;BME280;68371;42.630;23.192;2023-04-27T09:05:20;92215.78;;;9.88;45.39
64602;BME280;68371;42.630;23.192;2023-04-27T09:08:03;92209.41;;;9.89;45.42
64602;BME280;68371;42.630;23.192;2023-04-27T09:10:42;92199.16;;;9.84;45.37
64602;BME280;68371;42.630;23.192;2023-04-27T09:13:09;92212.88;;;9.77;44.41
64602;BME280;68371;42.630;23.192;2023-04-27T09:15:41;92206.66;;;9.70;48.27
64602;BME280;68371;42.630;23.192;2023-04-27T09:18:14;92209.75;;;9.88;44.16
64602;BME280;68371;42.630;23.192;2023-04-27T09:20:42;92172.47;;;9.66;47.27
64602;BME280;68371;42.630;23.192;2023-04-27T09:23:10;92213.00;;;9.97;47.49
64602;BME280;68371;42.630;23.192;2023-04-27T09:25:37;92207.16;;;10.03;45.62
64602;BME280;68371;42.630;23.192;2023-04-27T09:28:03;92203.88;;;10.07;45.26
64602;BME280;68371;42.630;23.192;2023-04-27T09:30:30;92206.34;;;9.87;43.29
64602;BME280;68371;42.630;23.192;2023-04-27T09:32:58;92198.97;;;9.77;44.05
64602;BME280;68371;42.630;23.192;2023-04-27T09:35:28;92194.19;;;9.95;44.10
64602;BME280;68371;42.630;23.192;2023-04-27T09:37:56;92198.09;;;10.01;45.46
64602;BME280;68371;42.630;23.192;2023-04-27T09:40:26;92196.13;;;10.26;46.34
64602;BME280;68371;42.630;23.192;2023-04-27T09:42:54;92168.66;;;10.08;44.76
64602;BME280;68371;42.630;23.192;2023-04-27T09:45:22;92150.47;;;10.15;46.66
64602;BME280;68371;42.630;23.192;2023-04-27T09:47:49;92190.72;;;10.35;44.90
64602;BME280;68371;42.630;23.192;2023-04-27T09:50:16;92187.25;;;10.31;45.95
64602;BME280;68371;42.630;23.192;2023-04-27T09:52:44;92185.34;;;10.15;43.93
64602;BME280;68371;42.630;23.192;2023-04-27T09:55:15;92188.34;;;9.86;43.79
64602;BME280;68371;42.630;23.192;2023-04-27T09:57:46;92183.72;;;10.11;44.38
64602;BME280;68371;42.630;23.192;2023-04-27T10:00:25;92186.56;;;10.34;46.91
64602;BME280;68371;42.630;23.192;2023-04-27T10:03:06;92181.00;;;10.51;43.72
64602;BME280;68371;42.630;23.192;2023-04-27T10:05:41;92178.88;;;10.73;42.61
64602;BME280;68371;42.630;23.192;2023-04-27T10:08:13;92169.97;;;11.13;42.41
64602;BME280;68371;42.630;23.192;2023-04-27T10:10:41;92171.84;;;11.12;40.62
64602;BME280;68371;42.630;23.192;2023-04-27T10:13:19;92165.97;;;11.19;41.96
64602;BME280;68371;42.630;23.192;2023-04-27T10:15:46;92177.31;;;11.23;42.26
64602;BME280;68371;42.630;23.192;2023-04-27T10:18:24;92178.63;;;11.13;42.52
64602;BME280;68371;42.630;23.192;2023-04-27T10:20:52;92184.06;;;11.05;42.65
64602;BME280;68371;42.630;23.192;2023-04-27T10:23:23;92168.81;;;10.94;40.59
64602;BME280;68371;42.630;23.192;2023-04-27T10:25:49;92181.81;;;11.03;40.78
64602;BME280;68371;42.630;23.192;2023-04-27T10:28:18;92177.31;;;11.23;41.28
64602;BME280;68371;42.630;23.192;2023-04-27T10:30:46;92171.06;;;11.47;39.86
64602;BME280;68371;42.630;23.192;2023-04-27T10:33:15;92139.53;;;11.31;39.02
64602;BME280;68371;42.630;23.192;2023-04-27T10:35:44;92166.63;;;11.51;39.71
64602;BME280;68371;42.630;23.192;2023-04-27T10:38:25;92169.13;;;11.83;42.88
64602;BME280;68371;42.630;23.192;2023-04-27T10:40:55;92169.94;;;11.87;39.91
64602;BME280;68371;42.630;23.192;2023-04-27T10:43:26;92172.88;;;11.82;38.53
64602;BME280;68371;42.630;23.192;2023-04-27T10:45:53;92170.16;;;11.78;40.55
64602;BME280;68371;42.630;23.192;2023-04-27T10:48:20;92166.34;;;11.76;39.25
64602;BME280;68371;42.630;23.192;2023-04-27T10:50:49;92165.59;;;11.56;38.81
64602;BME280;68371;42.630;23.192;2023-04-27T10:53:16;92166.69;;;11.55;38.54
64602;BME280;68371;42.630;23.192;2023-04-27T10:55:43;92171.06;;;11.47;39.65
64602;BME280;68371;42.630;23.192;2023-04-27T10:58:11;92155.91;;;11.60;35.93
64602;BME280;68371;42.630;23.192;2023-04-27T11:00:40;92162.81;;;12.07;38.58
64602;BME280;68371;42.630;23.192;2023-04-27T11:03:11;92170.78;;;12.11;38.88
64602;BME280;68371;42.630;23.192;2023-04-27T11:05:39;92141.72;;;11.84;38.91
64602;BME280;68371;42.630;23.192;2023-04-27T11:08:08;92161.22;;;11.83;39.21
64602;BME280;68371;42.630;23.192;2023-04-27T11:10:38;92161.16;;;11.79;39.77
64602;BME280;68371;42.630;23.192;2023-04-27T11:13:07;92138.88;;;11.54;40.35
64602;BME280;68371;42.630;23.192;2023-04-27T11:15:43;92159.22;;;11.76;39.20
64602;BME280;68371;42.630;23.192;2023-04-27T11:18:11;92160.03;;;12.00;40.08
64602;BME280;68371;42.630;23.192;2023-04-27T11:20:37;92159.25;;;12.42;38.82
64602;BME280;68371;42.630;23.192;2023-04-27T11:23:04;92158.53;;;12.68;39.30
64602;BME280;68371;42.630;23.192;2023-04-27T11:25:31;92164.91;;;12.90;37.09
64602;BME280;68371;42.630;23.192;2023-04-27T11:27:58;92164.28;;;13.00;36.55
64602;BME280;68371;42.630;23.192;2023-04-27T11:30:25;92163.75;;;13.14;35.78
64602;BME280;68371;42.630;23.192;2023-04-27T11:32:53;92153.66;;;13.23;37.71
64602;BME280;68371;42.630;23.192;2023-04-27T11:35:31;92165.88;;;13.62;37.45
64602;BME280;68371;42.630;23.192;2023-04-27T11:37:58;92164.44;;;13.68;35.72
64602;BME280;68371;42.630;23.192;2023-04-27T11:40:25;92165.69;;;13.48;36.51
64602;BME280;68371;42.630;23.192;2023-04-27T11:42:56;92171.25;;;13.69;38.45
64602;BME280;68371;42.630;23.192;2023-04-27T11:45:24;92164.09;;;13.39;34.76
64602;BME280;68371;42.630;23.192;2023-04-27T11:47:56;92142.53;;;13.34;37.81
64602;BME280;68371;42.630;23.192;2023-04-27T11:50:23;92183.56;;;13.31;37.06
64602;BME280;68371;42.630;23.192;2023-04-27T11:52:51;92180.25;;;13.34;37.58
64602;BME280;68371;42.630;23.192;2023-04-27T11:55:19;92180.94;;;13.05;36.83
64602;BME280;68371;42.630;23.192;2023-04-27T11:57:46;92181.03;;;12.62;37.45
64602;BME280;68371;42.630;23.192;2023-04-27T12:00:13;92185.78;;;12.76;37.96
64602;BME280;68371;42.630;23.192;2023-04-27T12:02:41;92183.31;;;12.40;36.24
64602;BME280;68371;42.630;23.192;2023-04-27T12:05:10;92148.38;;;12.20;36.25
64602;BME280;68371;42.630;23.192;2023-04-27T12:07:37;92190.03;;;12.61;37.84
64602;BME280;68371;42.630;23.192;2023-04-27T12:10:06;92178.13;;;12.44;37.82
64602;BME280;68371;42.630;23.192;2023-04-27T12:12:33;92151.88;;;11.86;38.53
64602;BME280;68371;42.630;23.192;2023-04-27T12:15:00;92176.94;;;12.41;38.42
64602;BME280;68371;42.630;23.192;2023-04-27T12:17:27;92188.41;;;12.53;39.95
64602;BME280;68371;42.630;23.192;2023-04-27T12:19:54;92191.69;;;12.23;38.28
64602;BME280;68371;42.630;23.192;2023-04-27T12:22:22;92195.25;;;12.34;38.93
64602;BME280;68371;42.630;23.192;2023-04-27T12:24:49;92198.69;;;12.15;39.23
64602;BME280;68371;42.630;23.192;2023-04-27T12:27:16;92193.03;;;12.13;38.99
64602;BME280;68371;42.630;23.192;2023-04-27T12:29:43;92197.66;;;12.20;40.89
64602;BME280;68371;42.630;23.192;2023-04-27T12:32:10;92193.00;;;12.33;38.22
64602;BME280;68371;42.630;23.192;2023-04-27T12:34:36;92197.03;;;12.50;38.34
64602;BME280;68371;42.630;23.192;2023-04-27T12:37:03;92169.69;;;12.58;37.72
64602;BME280;68371;42.630;23.192;2023-04-27T12:39:32;92194.56;;;12.83;37.57
64602;BME280;68371;42.630;23.192;2023-04-27T12:41:59;92184.56;;;13.23;38.47
64602;BME280;68371;42.630;23.192;2023-04-27T12:44:26;92187.78;;;13.36;36.77
64602;BME280;68371;42.630;23.192;2023-04-27T12:46:53;92196.88;;;13.69;35.35
64602;BME280;68371;42.630;23.192;2023-04-27T12:49:19;92166.03;;;13.16;36.22
64602;BME280;68371;42.630;23.192;2023-04-27T12:51:46;92186.81;;;13.48;37.45
64602;BME280;68371;42.630;23.192;2023-04-27T12:54:16;92199.31;;;13.51;36.50
64602;BME280;68371;42.630;23.192;2023-04-27T12:56:44;92181.81;;;13.69;36.64
64602;BME280;68371;42.630;23.192;2023-04-27T12:59:12;92190.84;;;14.02;37.68